createdAt,value
2024-02-19T00:00:50.985Z,3.85
2024-02-19T00:03:19.002Z,4.18
2024-02-19T00:05:46.297Z,3.75
2024-02-19T00:08:13.052Z,4.20
2024-02-19T00:10:39.785Z,4.90
2024-02-19T00:13:06.439Z,4.47
2024-02-19T00:15:32.971Z,4.40
2024-02-19T00:18:00.180Z,4.82
2024-02-19T00:20:26.767Z,4.38
2024-02-19T00:22:53.287Z,4.35
2024-02-19T00:25:19.931Z,4.85
2024-02-19T00:27:46.530Z,4.20
2024-02-19T00:30:13.363Z,4.13
2024-02-19T00:32:40.221Z,5.57
2024-02-19T00:35:07.026Z,3.80
2024-02-19T00:37:33.635Z,3.75
2024-02-19T00:40:00.338Z,3.80
2024-02-19T00:42:27.021Z,4.03
2024-02-19T00:44:53.533Z,4.15
2024-02-19T00:47:20.021Z,3.65
2024-02-19T00:49:46.673Z,4.00
2024-02-19T00:52:13.417Z,4.68
2024-02-19T00:54:40.013Z,3.88
2024-02-19T00:57:06.533Z,3.90
2024-02-19T00:59:33.076Z,4.88
2024-02-19T01:01:59.872Z,4.40
2024-02-19T01:04:26.598Z,4.30
2024-02-19T01:06:53.261Z,4.05
2024-02-19T01:09:19.749Z,4.53
2024-02-19T01:11:46.256Z,4.50
2024-02-19T01:14:12.770Z,5.10
2024-02-19T01:16:39.389Z,4.05
2024-02-19T01:19:06.886Z,4.68
2024-02-19T01:21:33.570Z,4.47
2024-02-19T01:24:01.501Z,4.40
2024-02-19T01:26:28.036Z,3.92
2024-02-19T01:28:54.568Z,4.55
2024-02-19T01:31:22.237Z,3.30
2024-02-19T01:33:49.536Z,3.85
2024-02-19T01:36:16.143Z,4.47
2024-02-19T01:38:43.403Z,5.07
2024-02-19T01:41:10.039Z,4.68
2024-02-19T01:43:37.583Z,4.32
2024-02-19T01:46:04.403Z,4.47
2024-02-19T01:48:30.982Z,5.22
2024-02-19T01:50:57.576Z,4.30
2024-02-19T01:53:24.681Z,4.80
2024-02-19T01:55:51.272Z,4.68
2024-02-19T01:58:17.814Z,5.30
2024-02-19T02:00:44.418Z,5.15
2024-02-19T02:03:11.368Z,5.47
2024-02-19T02:05:37.999Z,5.20
2024-02-19T02:08:06.388Z,5.00
2024-02-19T02:10:32.973Z,4.78
2024-02-19T02:12:59.517Z,4.53
2024-02-19T02:15:26.584Z,5.90
2024-02-19T02:17:53.126Z,4.38
2024-02-19T02:20:19.677Z,4.68
2024-02-19T02:22:48.218Z,4.78
2024-02-19T02:25:14.857Z,4.03
2024-02-19T02:27:41.468Z,3.88
2024-02-19T02:30:09.496Z,4.32
2024-02-19T02:32:36.160Z,4.53
2024-02-19T02:35:03.921Z,4.97
2024-02-19T02:37:31.769Z,5.45
2024-02-19T02:39:58.388Z,5.30
2024-02-19T02:42:25.026Z,5.90
2024-02-19T02:44:51.902Z,5.72
2024-02-19T02:47:18.460Z,6.65
2024-02-19T02:49:44.976Z,7.35
2024-02-19T02:52:11.552Z,6.50
2024-02-19T02:54:38.352Z,7.10
2024-02-19T02:57:04.935Z,6.80
2024-02-19T02:59:31.504Z,7.28
2024-02-19T03:01:58.107Z,7.55
2024-02-19T03:04:24.945Z,7.70
2024-02-19T03:06:51.626Z,8.13
2024-02-19T03:09:18.328Z,7.25
2024-02-19T03:11:44.889Z,8.18
2024-02-19T03:14:14.862Z,7.65
2024-02-19T03:16:41.673Z,7.90
2024-02-19T03:19:10.690Z,8.63
2024-02-19T03:21:37.856Z,8.07
2024-02-19T03:24:04.772Z,8.88
2024-02-19T03:26:37.843Z,8.30
2024-02-19T03:29:13.859Z,8.75
2024-02-19T03:31:41.429Z,9.55
2024-02-19T03:34:08.408Z,8.88
2024-02-19T03:36:35.188Z,9.20
2024-02-19T03:39:01.680Z,9.63
2024-02-19T03:41:28.277Z,8.60
2024-02-19T03:43:54.956Z,8.50
2024-02-19T03:46:21.592Z,8.43
2024-02-19T03:48:48.182Z,7.97
2024-02-19T03:51:14.752Z,7.97
2024-02-19T03:53:41.278Z,8.40
2024-02-19T03:56:07.880Z,8.32
2024-02-19T03:58:36.106Z,8.80
2024-02-19T04:01:03.844Z,8.38
2024-02-19T04:03:32.089Z,7.75
2024-02-19T04:05:58.731Z,7.35
2024-02-19T04:08:25.202Z,8.45
2024-02-19T04:10:51.697Z,8.07
2024-02-19T04:13:18.411Z,8.70
2024-02-19T04:15:45.004Z,7.95
2024-02-19T04:18:11.700Z,8.27
2024-02-19T04:20:38.187Z,10.07
2024-02-19T04:23:04.834Z,9.80
2024-02-19T04:25:31.352Z,9.68
2024-02-19T04:27:57.905Z,10.02
2024-02-19T04:30:24.415Z,9.95
2024-02-19T04:32:52.171Z,8.80
2024-02-19T04:35:19.692Z,8.75
2024-02-19T04:37:46.243Z,9.25
2024-02-19T04:40:14.162Z,8.90
2024-02-19T04:42:40.816Z,10.15
2024-02-19T04:45:07.589Z,9.93
2024-02-19T04:47:34.087Z,8.45
2024-02-19T04:50:00.973Z,7.53
2024-02-19T04:52:27.785Z,8.05
2024-02-19T04:54:54.425Z,7.40
2024-02-19T04:57:21.265Z,7.43
2024-02-19T04:59:47.799Z,5.88
2024-02-19T05:02:14.298Z,4.05
2024-02-19T05:04:41.381Z,3.33
2024-02-19T05:07:08.092Z,2.97
2024-02-19T05:09:34.898Z,1.40
2024-02-19T05:12:01.730Z,1.58
2024-02-19T05:14:28.281Z,1.25
2024-02-19T05:16:56.082Z,1.63
2024-02-19T05:19:23.074Z,0.98
2024-02-19T05:21:49.783Z,0.93
2024-02-19T05:24:18.389Z,1.17
2024-02-19T05:26:45.077Z,1.50
2024-02-19T05:29:12.022Z,2.00
2024-02-19T05:31:39.234Z,1.58
2024-02-19T05:34:06.135Z,0.70
2024-02-19T05:36:32.867Z,0.60
2024-02-19T05:38:59.908Z,1.05
2024-02-19T05:41:26.647Z,1.45
2024-02-19T05:43:53.416Z,1.92
2024-02-19T05:46:20.654Z,1.23
2024-02-19T05:48:47.509Z,1.88
2024-02-19T05:51:14.188Z,2.30
2024-02-19T05:53:41.872Z,1.55
2024-02-19T05:56:10.616Z,2.45
2024-02-19T05:58:41.652Z,2.67
2024-02-19T06:01:08.692Z,2.83
2024-02-19T06:03:35.562Z,4.20
2024-02-19T06:06:02.495Z,2.90
2024-02-19T06:08:29.091Z,2.22
2024-02-19T06:10:56.667Z,2.17
2024-02-19T06:13:23.404Z,2.13
2024-02-19T06:15:50.130Z,2.20
2024-02-19T06:18:16.856Z,1.10
2024-02-19T06:20:43.743Z,1.98
2024-02-19T06:23:10.248Z,2.08
2024-02-19T06:25:36.781Z,1.85
2024-02-19T06:28:03.561Z,1.15
2024-02-19T06:30:30.153Z,1.00
2024-02-19T06:32:56.711Z,0.80
2024-02-19T06:35:23.305Z,0.90
2024-02-19T06:37:50.142Z,1.30
2024-02-19T06:40:17.131Z,1.55
2024-02-19T06:42:43.743Z,2.40
2024-02-19T06:45:10.985Z,2.08
2024-02-19T06:47:37.616Z,1.95
2024-02-19T06:50:04.489Z,2.30
2024-02-19T06:52:31.220Z,1.58
2024-02-19T06:54:57.819Z,1.00
2024-02-19T06:57:24.412Z,1.30
2024-02-19T06:59:50.926Z,1.48
2024-02-19T07:02:17.495Z,0.60
2024-02-19T07:04:46.327Z,0.70
2024-02-19T07:07:13.078Z,0.50
2024-02-19T07:09:41.478Z,0.65
2024-02-19T07:12:08.673Z,0.50
2024-02-19T07:14:35.210Z,0.45
2024-02-19T07:17:01.717Z,0.60
2024-02-19T07:19:28.343Z,0.55
2024-02-19T07:21:54.934Z,0.43
2024-02-19T07:24:21.532Z,0.68
2024-02-19T07:26:48.065Z,0.40
2024-02-19T07:29:14.759Z,0.38
2024-02-19T07:31:41.346Z,0.52
2024-02-19T07:34:08.781Z,0.50
2024-02-19T07:36:35.738Z,0.70
2024-02-19T07:39:02.320Z,0.52
2024-02-19T07:41:28.867Z,0.63
2024-02-19T07:43:55.410Z,0.40
2024-02-19T07:46:23.240Z,0.60
2024-02-19T07:48:50.226Z,0.50
2024-02-19T07:51:17.809Z,0.45
2024-02-19T07:53:45.031Z,0.43
2024-02-19T07:56:11.652Z,0.65
2024-02-19T07:58:38.171Z,0.45
2024-02-19T08:01:05.577Z,0.50
2024-02-19T08:03:32.796Z,0.40
2024-02-19T08:05:59.474Z,0.60
2024-02-19T08:08:26.269Z,0.50
2024-02-19T08:10:53.224Z,0.70
2024-02-19T08:13:19.917Z,0.52
2024-02-19T08:15:46.654Z,0.40
2024-02-19T08:18:13.307Z,0.90
2024-02-19T08:20:40.326Z,1.00
2024-02-19T08:23:06.917Z,1.00
2024-02-19T08:25:33.759Z,1.40
2024-02-19T08:28:00.651Z,1.70
2024-02-19T08:30:27.220Z,1.60
2024-02-19T08:32:53.687Z,1.50
2024-02-19T08:35:20.312Z,1.80
2024-02-19T08:37:46.890Z,1.10
2024-02-19T08:40:13.511Z,1.27
2024-02-19T08:42:40.258Z,1.10
2024-02-19T08:45:07.335Z,2.20
2024-02-19T08:47:33.847Z,2.00
2024-02-19T08:50:00.555Z,1.50
2024-02-19T08:52:27.218Z,1.25
2024-02-19T08:54:53.856Z,1.15
2024-02-19T08:57:21.085Z,0.93
2024-02-19T08:59:47.749Z,0.90
2024-02-19T09:02:14.763Z,1.00
2024-02-19T09:04:43.693Z,1.10
2024-02-19T09:07:10.678Z,1.05
2024-02-19T09:09:37.754Z,0.70
2024-02-19T09:12:05.209Z,0.63
2024-02-19T09:14:31.739Z,0.90
2024-02-19T09:16:58.269Z,0.65
2024-02-19T09:19:24.949Z,0.80
2024-02-19T09:21:51.555Z,0.80
2024-02-19T09:24:18.136Z,0.90
2024-02-19T09:26:44.635Z,0.80
2024-02-19T09:29:11.180Z,0.50
2024-02-19T09:31:37.908Z,1.45
2024-02-19T09:34:04.785Z,1.50
2024-02-19T09:36:31.354Z,1.85
2024-02-19T09:38:57.850Z,1.40
2024-02-19T09:41:24.492Z,1.48
2024-02-19T09:43:52.887Z,1.35
2024-02-19T09:46:23.513Z,1.35
2024-02-19T09:48:50.894Z,0.90
2024-02-19T09:51:29.387Z,0.77
2024-02-19T09:54:00.049Z,1.10
2024-02-19T09:56:27.222Z,0.68
2024-02-19T09:58:53.788Z,0.70
2024-02-19T10:01:20.501Z,0.60
2024-02-19T10:03:47.272Z,0.70
2024-02-19T10:06:14.020Z,0.75
2024-02-19T10:08:40.681Z,0.60
2024-02-19T10:11:09.461Z,0.82
2024-02-19T10:13:38.196Z,1.00
2024-02-19T10:16:09.516Z,0.70
2024-02-19T10:18:36.233Z,0.70
2024-02-19T10:21:03.085Z,0.70
2024-02-19T10:23:29.637Z,0.88
2024-02-19T10:25:56.425Z,0.80
2024-02-19T10:28:24.532Z,0.70
2024-02-19T10:30:52.358Z,0.80
2024-02-19T10:33:20.618Z,1.17
2024-02-19T10:35:50.650Z,0.75
2024-02-19T10:38:18.357Z,0.80
2024-02-19T10:40:44.941Z,0.63
2024-02-19T10:43:11.951Z,0.70
2024-02-19T10:45:39.439Z,0.77
2024-02-19T10:48:06.540Z,1.10
2024-02-19T10:50:33.657Z,0.57
2024-02-19T10:53:00.236Z,0.65
2024-02-19T10:55:36.052Z,0.60
2024-02-19T10:58:13.946Z,0.70
2024-02-19T11:00:41.936Z,0.70
2024-02-19T11:03:09.538Z,0.70
2024-02-19T11:05:40.049Z,0.90
2024-02-19T11:08:18.232Z,0.80
2024-02-19T11:10:45.033Z,0.77
2024-02-19T11:13:13.275Z,0.50
2024-02-19T11:15:43.263Z,0.90
2024-02-19T11:18:12.591Z,0.70
2024-02-19T11:20:39.274Z,0.70
2024-02-19T11:23:06.025Z,0.70
2024-02-19T11:25:32.665Z,1.25
2024-02-19T11:27:59.774Z,0.80
2024-02-19T11:30:27.045Z,1.00
2024-02-19T11:33:05.714Z,0.85
2024-02-19T11:35:36.607Z,0.85
2024-02-19T11:38:04.285Z,0.85
2024-02-19T11:40:34.423Z,0.65
2024-02-19T11:43:02.870Z,0.80
2024-02-19T11:45:31.271Z,1.08
2024-02-19T11:47:59.630Z,0.70
2024-02-19T11:50:30.024Z,1.10
2024-02-19T11:52:58.755Z,0.55
2024-02-19T11:55:26.179Z,0.85
2024-02-19T11:57:53.929Z,1.10
2024-02-19T12:00:23.601Z,0.88
2024-02-19T12:02:52.658Z,1.30
2024-02-19T12:05:20.079Z,1.55
2024-02-19T12:07:46.723Z,1.13
2024-02-19T12:10:13.452Z,1.15
2024-02-19T12:12:40.869Z,1.75
2024-02-19T12:15:12.234Z,1.27
2024-02-19T12:17:40.520Z,1.38
2024-02-19T12:20:08.632Z,0.90
2024-02-19T12:22:35.278Z,1.10
2024-02-19T12:25:01.919Z,1.00
2024-02-19T12:27:28.483Z,1.00
2024-02-19T12:29:55.101Z,1.08
2024-02-19T12:32:22.230Z,0.85
2024-02-19T12:34:49.133Z,0.82
2024-02-19T12:37:16.569Z,1.10
2024-02-19T12:39:43.530Z,1.23
2024-02-19T12:42:11.558Z,1.00
2024-02-19T12:44:39.394Z,0.80
2024-02-19T12:47:06.985Z,1.23
2024-02-19T12:49:37.476Z,1.17
2024-02-19T12:52:05.886Z,0.65
2024-02-19T12:54:32.994Z,0.80
2024-02-19T12:57:00.338Z,0.90
2024-02-19T12:59:26.825Z,0.73
2024-02-19T13:01:53.453Z,1.10
2024-02-19T13:04:20.585Z,0.93
2024-02-19T13:06:47.904Z,1.30
2024-02-19T13:09:15.284Z,1.05
2024-02-19T13:11:41.850Z,1.10
2024-02-19T13:14:08.447Z,0.75
2024-02-19T13:16:36.481Z,0.60
2024-02-19T13:19:03.500Z,0.65
2024-02-19T13:21:31.739Z,0.60
2024-02-19T13:23:58.233Z,0.82
2024-02-19T13:26:24.749Z,0.82
2024-02-19T13:28:51.288Z,0.80
2024-02-19T13:31:17.920Z,0.82
2024-02-19T13:33:44.673Z,1.30
2024-02-19T13:36:11.256Z,0.93
2024-02-19T13:38:39.163Z,1.50
2024-02-19T13:41:05.872Z,0.98
2024-02-19T13:43:33.425Z,1.10
2024-02-19T13:46:02.802Z,1.23
2024-02-19T13:48:30.102Z,1.33
2024-02-19T13:50:57.978Z,0.95
2024-02-19T13:53:26.505Z,1.00
2024-02-19T13:55:53.663Z,1.13
2024-02-19T13:58:21.886Z,1.52
2024-02-19T14:00:48.735Z,1.48
2024-02-19T14:03:17.948Z,0.90
2024-02-19T14:05:45.583Z,1.35
2024-02-19T14:08:13.563Z,0.82
2024-02-19T14:10:40.491Z,1.23
2024-02-19T14:13:07.123Z,1.60
2024-02-19T14:15:33.784Z,1.30
2024-02-19T14:18:00.462Z,1.52
2024-02-19T14:20:27.178Z,0.80
2024-02-19T14:22:54.152Z,1.00
2024-02-19T14:25:21.064Z,0.98
2024-02-19T14:27:47.726Z,0.82
2024-02-19T14:30:14.739Z,0.80
2024-02-19T14:32:41.596Z,0.98
2024-02-19T14:35:10.136Z,1.15
2024-02-19T14:37:39.979Z,1.10
2024-02-19T14:40:10.270Z,0.82
2024-02-19T14:42:37.582Z,0.88
2024-02-19T14:45:05.567Z,0.77
2024-02-19T14:47:32.221Z,0.90
2024-02-19T14:49:58.954Z,0.70
2024-02-19T14:52:26.193Z,0.70
2024-02-19T14:54:55.229Z,0.60
2024-02-19T14:57:22.026Z,0.60
2024-02-19T14:59:51.718Z,0.82
2024-02-19T15:02:19.030Z,0.80
2024-02-19T15:04:45.820Z,0.65
2024-02-19T15:07:16.017Z,0.73
2024-02-19T15:09:42.960Z,0.70
2024-02-19T15:12:10.269Z,1.00
2024-02-19T15:14:36.868Z,0.82
2024-02-19T15:17:04.323Z,1.02
2024-02-19T15:19:30.926Z,0.77
2024-02-19T15:21:57.514Z,0.93
2024-02-19T15:24:26.894Z,0.90
2024-02-19T15:26:53.415Z,0.90
2024-02-19T15:29:21.668Z,1.13
2024-02-19T15:31:48.235Z,0.95
2024-02-19T15:34:14.852Z,0.70
2024-02-19T15:36:41.414Z,0.80
2024-02-19T15:39:09.497Z,0.60
2024-02-19T15:41:38.840Z,1.38
2024-02-19T15:44:05.678Z,0.75
2024-02-19T15:46:32.499Z,0.70
2024-02-19T15:49:01.566Z,0.70
2024-02-19T15:51:30.680Z,0.80
2024-02-19T15:53:58.150Z,0.70
2024-02-19T15:56:25.945Z,1.00
2024-02-19T15:58:52.726Z,0.73
2024-02-19T16:01:19.766Z,0.73
2024-02-19T16:03:46.496Z,1.00
2024-02-19T16:06:13.060Z,0.80
2024-02-19T16:08:42.443Z,0.90
2024-02-19T16:11:10.592Z,0.82
2024-02-19T16:13:39.092Z,0.80
2024-02-19T16:16:07.129Z,1.17
2024-02-19T16:18:34.533Z,1.00
2024-02-19T16:21:01.604Z,0.95
2024-02-19T16:23:30.236Z,0.98
2024-02-19T16:25:59.251Z,1.48
2024-02-19T16:28:26.828Z,1.10
2024-02-19T16:30:53.438Z,1.20
2024-02-19T16:33:20.003Z,1.33
2024-02-19T16:35:46.662Z,0.80
2024-02-19T16:38:15.223Z,1.00
2024-02-19T16:40:43.236Z,1.38
2024-02-19T16:43:09.788Z,1.27
2024-02-19T16:45:38.689Z,1.30
2024-02-19T16:48:09.946Z,1.00
2024-02-19T16:50:36.931Z,0.90
2024-02-19T16:53:03.738Z,1.00
2024-02-19T16:55:30.303Z,1.13
2024-02-19T16:57:56.962Z,1.20
2024-02-19T17:00:23.592Z,0.98
2024-02-19T17:02:50.170Z,1.65
2024-02-19T17:05:16.927Z,1.08
2024-02-19T17:07:44.082Z,1.17
2024-02-19T17:10:11.032Z,1.45
2024-02-19T17:12:37.572Z,2.42
2024-02-19T17:15:04.261Z,3.00
2024-02-19T17:17:30.768Z,2.25
2024-02-19T17:19:57.452Z,2.33
2024-02-19T17:22:24.092Z,2.28
2024-02-19T17:24:50.646Z,2.50
2024-02-19T17:27:17.242Z,2.13
2024-02-19T17:29:43.777Z,2.10
2024-02-19T17:32:10.358Z,1.90
2024-02-19T17:34:37.880Z,1.90
2024-02-19T17:37:05.075Z,2.55
2024-02-19T17:39:31.862Z,2.03
2024-02-19T17:41:58.378Z,1.70
2024-02-19T17:44:25.452Z,2.35
2024-02-19T17:46:52.844Z,1.60
2024-02-19T17:49:19.868Z,1.58
2024-02-19T17:51:46.701Z,1.52
2024-02-19T17:54:14.836Z,1.10
2024-02-19T17:56:41.535Z,1.63
2024-02-19T17:59:10.830Z,1.10
2024-02-19T18:01:39.208Z,1.13
2024-02-19T18:04:06.342Z,1.33
2024-02-19T18:06:35.180Z,1.10
2024-02-19T18:09:03.999Z,0.70
2024-02-19T18:11:30.814Z,1.00
2024-02-19T18:13:58.957Z,0.90
2024-02-19T18:16:25.558Z,0.50
2024-02-19T18:18:52.166Z,0.85
2024-02-19T18:21:21.004Z,0.80
2024-02-19T18:23:51.207Z,0.70
2024-02-19T18:26:18.320Z,1.20
2024-02-19T18:28:44.900Z,1.00
2024-02-19T18:31:12.375Z,1.15
2024-02-19T18:33:39.023Z,1.42
2024-02-19T18:36:06.319Z,2.55
2024-02-19T18:38:35.089Z,1.30
2024-02-19T18:41:03.903Z,1.40
2024-02-19T18:43:30.715Z,1.10
2024-02-19T18:46:00.844Z,1.13
2024-02-19T18:48:29.611Z,1.30
2024-02-19T18:50:56.805Z,1.52
2024-02-19T18:53:23.579Z,2.00
2024-02-19T18:56:02.577Z,1.27
2024-02-19T18:58:29.977Z,2.05
2024-02-19T19:00:57.284Z,1.38
2024-02-19T19:03:26.052Z,1.23
2024-02-19T19:05:56.434Z,1.30
2024-02-19T19:08:24.542Z,1.40
2024-02-19T19:10:51.135Z,2.00
2024-02-19T19:13:17.675Z,1.30
2024-02-19T19:15:44.241Z,1.60
2024-02-19T19:18:11.097Z,1.50
2024-02-19T19:20:40.081Z,1.42
2024-02-19T19:23:07.004Z,1.42
2024-02-19T19:25:33.737Z,1.15
2024-02-19T19:28:00.666Z,1.13
2024-02-19T19:30:27.732Z,1.73
2024-02-19T19:32:54.568Z,1.27
2024-02-19T19:35:24.279Z,1.10
2024-02-19T19:37:51.980Z,1.33
2024-02-19T19:40:19.893Z,1.80
2024-02-19T19:42:49.446Z,1.60
2024-02-19T19:45:16.161Z,1.55
2024-02-19T19:47:45.817Z,1.52
2024-02-19T19:50:12.625Z,2.00
2024-02-19T19:52:39.281Z,2.20
2024-02-19T19:55:06.105Z,1.83
2024-02-19T19:57:32.876Z,2.67
2024-02-19T20:00:00.854Z,3.05
2024-02-19T20:02:27.977Z,2.38
2024-02-19T20:04:56.477Z,2.30
2024-02-19T20:07:26.360Z,1.75
2024-02-19T20:09:53.073Z,1.55
2024-02-19T20:12:21.378Z,1.95
2024-02-19T20:14:48.024Z,1.80
2024-02-19T20:17:20.223Z,2.47
2024-02-19T20:19:46.886Z,1.80
2024-02-19T20:22:14.656Z,1.98
2024-02-19T20:24:41.238Z,1.77
2024-02-19T20:27:08.242Z,1.58
2024-02-19T20:29:35.176Z,2.20
2024-02-19T20:32:04.068Z,2.13
2024-02-19T20:34:31.686Z,2.28
2024-02-19T20:36:58.543Z,2.83
2024-02-19T20:39:25.935Z,2.47
2024-02-19T20:41:53.586Z,2.45
2024-02-19T20:44:20.204Z,2.45
2024-02-19T20:46:46.945Z,2.45
2024-02-19T20:49:13.500Z,2.90
2024-02-19T20:51:40.112Z,2.60
2024-02-19T20:54:06.616Z,2.50
2024-02-19T20:56:33.180Z,2.53
2024-02-19T20:58:59.715Z,2.42
2024-02-19T21:01:26.531Z,2.33
2024-02-19T21:03:53.160Z,2.00
2024-02-19T21:06:20.365Z,2.63
2024-02-19T21:08:47.203Z,2.40
2024-02-19T21:11:16.079Z,2.30
2024-02-19T21:13:43.677Z,2.35
2024-02-19T21:16:11.229Z,2.10
2024-02-19T21:18:46.569Z,2.40
2024-02-19T21:21:22.045Z,2.55
2024-02-19T21:23:56.401Z,3.20
2024-02-19T21:26:23.041Z,2.97
2024-02-19T21:28:50.333Z,3.67
2024-02-19T21:31:17.616Z,3.97
2024-02-19T21:33:44.499Z,3.00
2024-02-19T21:36:11.360Z,2.70
2024-02-19T21:38:38.105Z,3.47
2024-02-19T21:41:04.872Z,3.58
2024-02-19T21:43:31.451Z,3.17
2024-02-19T21:46:00.272Z,3.10
2024-02-19T21:48:27.240Z,3.20
2024-02-19T21:50:53.921Z,3.35
2024-02-19T21:53:20.436Z,3.58
2024-02-19T21:55:47.046Z,3.58
2024-02-19T21:58:13.679Z,3.38
2024-02-19T22:00:40.257Z,4.22
2024-02-19T22:03:07.119Z,3.83
2024-02-19T22:05:33.813Z,4.13
2024-02-19T22:08:01.206Z,3.85
2024-02-19T22:10:27.976Z,3.88
2024-02-19T22:12:54.717Z,3.47
2024-02-19T22:15:21.869Z,3.50
2024-02-19T22:17:48.471Z,3.38
2024-02-19T22:20:15.124Z,3.38
2024-02-19T22:22:43.161Z,3.10
2024-02-19T22:25:10.018Z,3.30
2024-02-19T22:27:36.578Z,3.70
2024-02-19T22:30:04.804Z,2.90
2024-02-19T22:32:32.871Z,3.30
2024-02-19T22:35:00.136Z,2.53
2024-02-19T22:37:27.395Z,2.83
2024-02-19T22:39:54.097Z,2.65
2024-02-19T22:42:20.620Z,2.75
2024-02-19T22:44:47.182Z,2.55
2024-02-19T22:47:13.728Z,2.58
2024-02-19T22:49:40.439Z,3.00
2024-02-19T22:52:07.786Z,3.13
2024-02-19T22:54:34.702Z,3.30
2024-02-19T22:57:01.622Z,2.70
2024-02-19T22:59:28.288Z,3.05
2024-02-19T23:01:55.029Z,2.80
2024-02-19T23:04:21.830Z,3.40
2024-02-19T23:06:49.129Z,3.28
2024-02-19T23:09:15.750Z,2.67
2024-02-19T23:11:43.125Z,3.13
2024-02-19T23:14:10.250Z,2.80
2024-02-19T23:16:36.807Z,2.50
2024-02-19T23:19:03.861Z,2.47
2024-02-19T23:21:30.675Z,2.33
2024-02-19T23:23:57.267Z,2.75
2024-02-19T23:26:23.766Z,2.38
2024-02-19T23:28:50.255Z,2.10
2024-02-19T23:31:16.866Z,1.92
2024-02-19T23:33:43.816Z,2.33
2024-02-19T23:36:10.423Z,2.78
2024-02-19T23:38:36.904Z,2.00
2024-02-19T23:41:03.470Z,2.05
2024-02-19T23:43:30.380Z,1.92
2024-02-19T23:45:57.016Z,2.47
2024-02-19T23:48:23.730Z,2.08
2024-02-19T23:50:50.373Z,2.22
2024-02-19T23:53:16.897Z,2.17
2024-02-19T23:55:43.863Z,2.20
2024-02-19T23:58:11.557Z,1.80
